createdAt,value
2019-04-28T00:00:47.057Z,2.10
2019-04-28T00:03:16.100Z,2.40
2019-04-28T00:05:45.194Z,2.13
2019-04-28T00:08:14.405Z,2.40
2019-04-28T00:10:43.429Z,2.60
2019-04-28T00:13:12.843Z,2.07
2019-04-28T00:15:42.013Z,1.97
2019-04-28T00:18:11.959Z,1.80
2019-04-28T00:20:58.862Z,2.73
2019-04-28T00:23:55.238Z,1.80
2019-04-28T00:26:37.670Z,1.90
2019-04-28T00:29:06.859Z,2.53
2019-04-28T00:31:36.047Z,1.90
2019-04-28T00:34:05.154Z,2.63
2019-04-28T00:36:34.180Z,1.60
2019-04-28T00:39:03.342Z,1.97
2019-04-28T00:41:32.419Z,2.37
2019-04-28T00:44:01.997Z,2.20
2019-04-28T00:46:34.248Z,2.20
2019-04-28T00:49:03.433Z,2.07
2019-04-28T00:51:32.451Z,3.10
2019-04-28T00:54:01.587Z,2.80
2019-04-28T00:56:31.725Z,2.43
2019-04-28T00:59:01.685Z,1.67
2019-04-28T01:01:51.307Z,2.07
2019-04-28T01:04:21.902Z,1.83
2019-04-28T01:06:51.978Z,1.70
2019-04-28T01:09:21.838Z,1.90
2019-04-28T01:11:53.356Z,1.87
2019-04-28T01:14:22.101Z,2.07
2019-04-28T01:17:00.417Z,1.83
2019-04-28T01:19:32.789Z,1.40
2019-04-28T01:22:20.163Z,1.77
2019-04-28T01:24:49.800Z,1.60
2019-04-28T01:27:44.295Z,1.67
2019-04-28T01:30:21.067Z,1.57
2019-04-28T01:32:56.733Z,1.60
2019-04-28T01:35:25.741Z,1.57
2019-04-28T01:37:54.812Z,1.33
2019-04-28T01:40:23.875Z,2.10
2019-04-28T01:42:52.822Z,1.97
2019-04-28T01:45:21.969Z,1.60
2019-04-28T01:47:51.102Z,1.30
2019-04-28T01:50:20.599Z,1.33
2019-04-28T01:52:51.420Z,1.60
2019-04-28T01:55:20.686Z,1.90
2019-04-28T01:57:49.874Z,2.87
2019-04-28T02:00:25.098Z,1.57
2019-04-28T02:02:50.607Z,1.70
2019-04-28T02:05:19.827Z,1.83
2019-04-28T02:07:50.534Z,1.60
2019-04-28T02:10:20.211Z,1.77
2019-04-28T02:12:50.454Z,1.27
2019-04-28T02:15:20.220Z,1.50
2019-04-28T02:17:50.019Z,1.40
2019-04-28T02:20:21.536Z,1.70
2019-04-28T02:22:59.847Z,1.57
2019-04-28T02:25:29.799Z,1.90
2019-04-28T02:27:59.597Z,1.40
2019-04-28T02:30:42.271Z,1.20
2019-04-28T02:33:01.608Z,1.40
2019-04-28T02:35:33.518Z,1.90
2019-04-28T02:38:01.075Z,1.50
2019-04-28T02:40:30.643Z,1.60
2019-04-28T02:43:01.245Z,1.53
2019-04-28T02:45:31.615Z,1.83
2019-04-28T02:48:03.348Z,1.27
2019-04-28T02:50:42.113Z,1.60
2019-04-28T02:53:17.120Z,1.80
2019-04-28T02:55:46.229Z,1.23
2019-04-28T02:58:15.245Z,2.20
2019-04-28T03:01:01.416Z,1.50
2019-04-28T03:03:15.159Z,1.50
2019-04-28T03:05:44.178Z,2.13
2019-04-28T03:08:13.239Z,1.40
2019-04-28T03:10:42.249Z,1.53
2019-04-28T03:13:13.347Z,1.50
2019-04-28T03:15:42.967Z,1.13
2019-04-28T03:18:12.179Z,1.70
2019-04-28T03:20:42.391Z,1.63
2019-04-28T03:23:12.403Z,1.10
2019-04-28T03:25:54.849Z,1.77
2019-04-28T03:28:33.768Z,1.63
2019-04-28T03:31:40.599Z,1.30
2019-04-28T03:33:48.555Z,1.87
2019-04-28T03:36:15.560Z,1.50
2019-04-28T03:38:43.650Z,1.50
2019-04-28T03:41:12.651Z,1.40
2019-04-28T03:43:41.583Z,1.30
2019-04-28T03:46:15.870Z,1.60
2019-04-28T03:48:44.912Z,1.10
2019-04-28T03:51:13.907Z,1.33
2019-04-28T03:53:42.909Z,1.47
2019-04-28T03:56:11.856Z,1.30
2019-04-28T03:58:42.306Z,1.80
2019-04-28T04:01:11.443Z,2.00
2019-04-28T04:03:41.674Z,2.53
2019-04-28T04:06:11.218Z,2.07
2019-04-28T04:08:40.981Z,1.80
2019-04-28T04:11:35.308Z,1.20
2019-04-28T04:14:17.590Z,2.30
2019-04-28T04:16:59.988Z,2.20
2019-04-28T04:19:32.306Z,1.20
2019-04-28T04:22:02.193Z,1.77
2019-04-28T04:24:31.194Z,1.20
2019-04-28T04:27:00.810Z,1.70
2019-04-28T04:29:30.975Z,1.73
2019-04-28T04:32:13.432Z,1.33
2019-04-28T04:34:30.913Z,1.00
2019-04-28T04:37:00.688Z,1.77
2019-04-28T04:39:30.424Z,1.00
2019-04-28T04:42:00.639Z,1.20
2019-04-28T04:44:31.690Z,1.33
2019-04-28T04:47:01.075Z,1.60
2019-04-28T04:49:31.563Z,1.13
2019-04-28T04:52:00.815Z,1.40
2019-04-28T04:54:32.352Z,1.67
2019-04-28T04:57:00.813Z,1.80
2019-04-28T04:59:31.422Z,1.63
2019-04-28T05:02:29.496Z,1.47
2019-04-28T05:05:12.161Z,1.60
2019-04-28T05:07:41.154Z,1.60
2019-04-28T05:10:10.633Z,1.90
2019-04-28T05:12:40.385Z,1.60
2019-04-28T05:15:10.443Z,2.33
2019-04-28T05:17:40.234Z,3.67
2019-04-28T05:20:09.855Z,1.40
2019-04-28T05:22:45.706Z,2.27
2019-04-28T05:25:20.502Z,1.40
2019-04-28T05:27:50.016Z,1.87
2019-04-28T05:30:20.415Z,2.60
2019-04-28T05:32:55.659Z,2.50
2019-04-28T05:35:21.962Z,2.10
2019-04-28T05:37:51.146Z,1.83
2019-04-28T05:40:20.636Z,2.10
2019-04-28T05:43:00.828Z,1.60
2019-04-28T05:45:32.238Z,2.03
2019-04-28T05:48:01.641Z,2.17
2019-04-28T05:50:42.429Z,2.13
2019-04-28T05:53:21.701Z,2.73
2019-04-28T05:56:00.048Z,2.37
2019-04-28T05:58:51.040Z,1.67
2019-04-28T06:01:30.515Z,3.80
2019-04-28T06:04:00.918Z,1.40
2019-04-28T06:06:33.477Z,1.80
2019-04-28T06:09:10.145Z,1.63
2019-04-28T06:11:40.575Z,2.00
2019-04-28T06:14:10.085Z,2.53
2019-04-28T06:16:40.644Z,1.70
2019-04-28T06:19:10.351Z,1.73
2019-04-28T06:21:39.695Z,1.97
2019-04-28T06:24:08.806Z,1.30
2019-04-28T06:26:37.903Z,1.17
2019-04-28T06:29:06.983Z,2.57
2019-04-28T06:31:35.990Z,2.10
2019-04-28T06:34:05.103Z,1.90
2019-04-28T06:36:34.157Z,2.10
2019-04-28T06:39:04.033Z,1.83
2019-04-28T06:41:33.005Z,1.97
2019-04-28T06:44:02.006Z,2.10
2019-04-28T06:46:31.058Z,1.97
2019-04-28T06:49:00.055Z,1.90
2019-04-28T06:51:28.937Z,2.00
2019-04-28T06:53:58.013Z,1.80
2019-04-28T06:56:26.993Z,2.40
2019-04-28T06:58:59.318Z,3.13
2019-04-28T07:01:26.713Z,2.27
2019-04-28T07:03:55.998Z,2.70
2019-04-28T07:06:25.042Z,2.70
2019-04-28T07:08:54.197Z,2.77
2019-04-28T07:11:23.246Z,2.70
2019-04-28T07:13:52.327Z,2.13
2019-04-28T07:16:21.516Z,2.10
2019-04-28T07:18:50.521Z,1.63
2019-04-28T07:21:33.401Z,1.70
2019-04-28T07:24:02.448Z,2.13
2019-04-28T07:26:32.444Z,2.33
2019-04-28T07:29:01.434Z,2.07
2019-04-28T07:31:30.483Z,2.47
2019-04-28T07:33:59.520Z,2.10
2019-04-28T07:36:28.530Z,2.43
2019-04-28T07:38:57.521Z,2.30
2019-04-28T07:41:26.444Z,1.43
2019-04-28T07:43:56.710Z,1.90
2019-04-28T07:46:25.598Z,1.97
2019-04-28T07:48:54.586Z,1.67
2019-04-28T07:51:25.069Z,2.80
2019-04-28T07:54:04.641Z,1.97
2019-04-28T07:56:32.349Z,2.50
2019-04-28T07:59:01.512Z,2.87
2019-04-28T08:01:30.686Z,1.90
2019-04-28T08:03:59.688Z,1.93
2019-04-28T08:06:28.847Z,1.90
2019-04-28T08:08:57.925Z,2.70
2019-04-28T08:11:26.834Z,1.80
2019-04-28T08:13:55.762Z,1.80
2019-04-28T08:16:24.757Z,1.93
2019-04-28T08:18:53.684Z,2.20
2019-04-28T08:21:22.614Z,2.07
2019-04-28T08:23:51.826Z,2.33
2019-04-28T08:26:20.746Z,2.43
2019-04-28T08:28:49.831Z,2.27
2019-04-28T08:31:20.532Z,2.27
2019-04-28T08:34:02.238Z,2.60
2019-04-28T08:36:26.496Z,1.70
2019-04-28T08:38:55.762Z,2.60
2019-04-28T08:41:24.752Z,1.30
2019-04-28T08:43:53.885Z,0.90
2019-04-28T08:46:22.885Z,1.00
2019-04-28T08:48:52.122Z,1.27
2019-04-28T08:51:21.076Z,0.70
2019-04-28T08:53:50.479Z,0.90
2019-04-28T08:56:19.497Z,1.13
2019-04-28T08:58:48.413Z,3.53
2019-04-28T09:01:17.420Z,1.70
2019-04-28T09:03:46.776Z,0.90
2019-04-28T09:06:15.864Z,1.60
2019-04-28T09:08:44.901Z,1.70
2019-04-28T09:11:13.894Z,0.73
2019-04-28T09:13:43.963Z,11.37
2019-04-28T09:16:13.276Z,1.30
2019-04-28T09:18:42.226Z,1.30
2019-04-28T09:21:11.282Z,9.13
2019-04-28T09:23:40.473Z,3.10
2019-04-28T09:26:09.483Z,4.10
2019-04-28T09:28:38.477Z,1.37
2019-04-28T09:31:07.621Z,1.30
2019-04-28T09:33:36.568Z,5.43
2019-04-28T09:36:05.654Z,3.57
2019-04-28T09:38:35.156Z,3.00
2019-04-28T09:41:04.267Z,1.60
2019-04-28T09:43:59.808Z,6.60
2019-04-28T09:46:34.766Z,1.93
2019-04-28T09:49:03.846Z,1.60
2019-04-28T09:51:33.421Z,1.27
2019-04-28T09:54:02.438Z,1.17
2019-04-28T09:56:31.420Z,1.40
2019-04-28T09:59:00.348Z,1.53
2019-04-28T10:01:29.732Z,1.60
2019-04-28T10:03:58.817Z,1.47
2019-04-28T10:06:27.853Z,1.40
2019-04-28T10:08:56.787Z,1.63
2019-04-28T10:11:30.690Z,1.43
2019-04-28T10:13:57.116Z,1.97
2019-04-28T10:16:26.610Z,1.93
2019-04-28T10:18:55.768Z,2.43
2019-04-28T10:21:24.907Z,1.70
2019-04-28T10:23:53.989Z,2.00
2019-04-28T10:26:23.197Z,1.73
2019-04-28T10:28:52.201Z,2.27
2019-04-28T10:31:21.117Z,2.27
2019-04-28T10:33:54.202Z,3.00
2019-04-28T10:36:23.209Z,3.90
2019-04-28T10:38:54.151Z,1.30
2019-04-28T10:41:35.432Z,1.37
2019-04-28T10:44:04.469Z,1.20
2019-04-28T10:46:33.397Z,1.50
2019-04-28T10:49:02.707Z,8.10
2019-04-28T10:51:31.711Z,3.93
2019-04-28T10:54:00.715Z,1.67
2019-04-28T10:56:29.709Z,1.57
2019-04-28T10:58:59.535Z,2.30
2019-04-28T11:01:28.598Z,1.47
2019-04-28T11:03:59.918Z,1.67
2019-04-28T11:06:29.678Z,1.73
2019-04-28T11:09:13.637Z,1.60
2019-04-28T11:11:42.508Z,1.67
2019-04-28T11:14:14.153Z,2.90
2019-04-28T11:16:42.254Z,1.80
2019-04-28T11:19:11.872Z,1.97
2019-04-28T11:21:40.869Z,2.60
2019-04-28T11:24:10.162Z,2.10
2019-04-28T11:26:39.505Z,2.37
2019-04-28T11:29:09.274Z,2.87
2019-04-28T11:31:38.553Z,1.60
2019-04-28T11:34:13.266Z,1.57
2019-04-28T11:36:42.549Z,1.83
2019-04-28T11:39:15.002Z,2.40
2019-04-28T11:41:44.234Z,2.53
2019-04-28T11:44:13.642Z,2.70
2019-04-28T11:46:42.896Z,2.10
2019-04-28T11:49:11.959Z,1.97
2019-04-28T11:51:40.977Z,2.40
2019-04-28T11:54:10.053Z,2.20
2019-04-28T11:56:41.701Z,1.30
2019-04-28T11:59:09.793Z,1.60
2019-04-28T12:01:38.866Z,2.03
2019-04-28T12:04:09.677Z,1.30
2019-04-28T12:06:38.705Z,1.67
2019-04-28T12:09:32.668Z,2.03
2019-04-28T12:12:02.577Z,3.07
2019-04-28T12:14:37.029Z,1.37
2019-04-28T12:17:26.566Z,1.40
2019-04-28T12:20:03.672Z,1.70
2019-04-28T12:22:32.636Z,1.37
2019-04-28T12:25:02.184Z,1.30
2019-04-28T12:27:31.021Z,1.20
2019-04-28T12:30:00.139Z,1.17
2019-04-28T12:32:29.074Z,1.30
2019-04-28T12:34:57.990Z,1.43
2019-04-28T12:37:27.024Z,0.80
2019-04-28T12:39:55.857Z,0.90
2019-04-28T12:42:25.005Z,1.40
2019-04-28T12:44:54.370Z,1.00
2019-04-28T12:47:23.429Z,1.00
2019-04-28T12:49:57.218Z,1.10
2019-04-28T12:52:26.209Z,1.03
2019-04-28T12:54:55.541Z,1.00
2019-04-28T12:57:24.605Z,0.80
2019-04-28T12:59:59.298Z,0.80
2019-04-28T13:02:47.993Z,1.03
2019-04-28T13:05:17.785Z,0.97
2019-04-28T13:07:46.881Z,1.10
2019-04-28T13:10:15.907Z,0.80
2019-04-28T13:12:44.909Z,1.10
2019-04-28T13:15:13.989Z,1.00
2019-04-28T13:17:43.319Z,0.97
2019-04-28T13:20:12.426Z,4.50
2019-04-28T13:22:41.429Z,1.50
2019-04-28T13:25:10.633Z,2.17
2019-04-28T13:27:39.633Z,2.07
2019-04-28T13:30:08.781Z,0.90
2019-04-28T13:32:37.808Z,1.37
2019-04-28T13:35:06.983Z,1.13
2019-04-28T13:37:36.142Z,4.63
2019-04-28T13:40:11.852Z,1.50
2019-04-28T13:42:40.974Z,2.30
2019-04-28T13:45:20.018Z,1.43
2019-04-28T13:47:49.015Z,1.50
2019-04-28T13:50:23.511Z,1.63
2019-04-28T13:52:52.778Z,1.10
2019-04-28T13:55:30.718Z,1.83
2019-04-28T13:58:00.923Z,1.37
2019-04-28T14:00:39.987Z,0.93
2019-04-28T14:03:34.181Z,1.00
2019-04-28T14:06:06.292Z,2.43
2019-04-28T14:08:35.252Z,1.07
2019-04-28T14:11:04.530Z,1.40
2019-04-28T14:13:33.617Z,1.17
2019-04-28T14:16:02.685Z,1.57
2019-04-28T14:18:31.791Z,1.40
2019-04-28T14:21:01.017Z,1.60
2019-04-28T14:23:29.967Z,1.40
2019-04-28T14:25:58.943Z,1.10
2019-04-28T14:28:27.962Z,1.30
2019-04-28T14:30:56.974Z,1.27
2019-04-28T14:33:25.893Z,1.13
2019-04-28T14:35:54.845Z,1.30
2019-04-28T14:38:23.900Z,1.37
2019-04-28T14:40:52.922Z,2.20
2019-04-28T14:43:22.173Z,1.80
2019-04-28T14:45:52.103Z,1.50
2019-04-28T14:48:21.050Z,1.17
2019-04-28T14:50:50.130Z,1.30
2019-04-28T14:53:18.998Z,1.33
2019-04-28T14:55:48.008Z,1.20
2019-04-28T14:58:16.997Z,0.97
2019-04-28T15:00:50.415Z,1.20
2019-04-28T15:03:19.590Z,1.60
2019-04-28T15:06:10.719Z,1.60
2019-04-28T15:09:00.081Z,1.10
2019-04-28T15:11:39.391Z,1.10
2019-04-28T15:14:08.402Z,1.10
2019-04-28T15:16:37.413Z,1.10
2019-04-28T15:19:06.376Z,1.27
2019-04-28T15:21:35.407Z,1.73
2019-04-28T15:24:04.477Z,1.53
2019-04-28T15:26:33.686Z,1.43
2019-04-28T15:29:02.770Z,1.70
2019-04-28T15:31:31.699Z,1.17
2019-04-28T15:34:01.304Z,1.33
2019-04-28T15:36:30.297Z,1.77
2019-04-28T15:38:59.550Z,1.73
2019-04-28T15:41:28.613Z,1.70
2019-04-28T15:43:57.578Z,1.23
2019-04-28T15:46:26.624Z,1.60
2019-04-28T15:48:55.664Z,1.60
2019-04-28T15:51:24.670Z,1.50
2019-04-28T15:53:53.722Z,1.20
2019-04-28T15:56:36.835Z,1.30
2019-04-28T15:59:07.334Z,1.20
2019-04-28T16:01:36.353Z,1.10
2019-04-28T16:04:05.525Z,1.40
2019-04-28T16:06:34.757Z,1.40
2019-04-28T16:09:06.577Z,1.83
2019-04-28T16:11:35.621Z,1.43
2019-04-28T16:14:05.509Z,1.10
2019-04-28T16:16:34.542Z,1.20
2019-04-28T16:19:04.126Z,1.73
2019-04-28T16:21:33.116Z,1.67
2019-04-28T16:24:02.113Z,1.33
2019-04-28T16:26:31.524Z,1.10
2019-04-28T16:29:00.607Z,1.20
2019-04-28T16:31:29.809Z,1.63
2019-04-28T16:33:58.832Z,1.37
2019-04-28T16:36:27.876Z,1.67
2019-04-28T16:38:56.871Z,1.70
2019-04-28T16:41:30.697Z,1.10
2019-04-28T16:44:03.567Z,1.40
2019-04-28T16:46:32.559Z,0.90
2019-04-28T16:49:01.813Z,1.13
2019-04-28T16:51:30.818Z,1.17
2019-04-28T16:54:00.086Z,0.90
2019-04-28T16:56:44.400Z,1.03
2019-04-28T16:59:28.547Z,1.00
2019-04-28T17:02:19.902Z,1.30
2019-04-28T17:04:48.897Z,1.60
2019-04-28T17:07:17.829Z,1.00
2019-04-28T17:09:47.255Z,1.23
2019-04-28T17:12:16.459Z,1.20
2019-04-28T17:14:45.478Z,1.07
2019-04-28T17:17:14.598Z,1.10
2019-04-28T17:19:43.673Z,1.30
2019-04-28T17:22:12.629Z,0.70
2019-04-28T17:24:41.731Z,0.93
2019-04-28T17:27:10.989Z,1.27
2019-04-28T17:29:40.114Z,1.20
2019-04-28T17:32:09.203Z,1.10
2019-04-28T17:34:38.246Z,1.13
2019-04-28T17:37:09.165Z,0.90
2019-04-28T17:39:38.657Z,1.07
2019-04-28T17:42:09.004Z,0.90
2019-04-28T17:44:38.230Z,1.20
2019-04-28T17:47:07.280Z,0.87
2019-04-28T17:49:37.638Z,1.20
2019-04-28T17:52:09.038Z,1.20
2019-04-28T17:54:39.965Z,1.07
2019-04-28T17:57:09.483Z,1.20
2019-04-28T17:59:38.602Z,1.43
2019-04-28T18:02:26.737Z,1.13
2019-04-28T18:05:15.046Z,1.20
2019-04-28T18:07:45.354Z,1.20
2019-04-28T18:10:14.705Z,0.80
2019-04-28T18:12:44.780Z,1.07
2019-04-28T18:15:35.406Z,0.90
2019-04-28T18:18:28.126Z,1.47
2019-04-28T18:20:57.262Z,1.00
2019-04-28T18:23:26.201Z,2.10
2019-04-28T18:25:55.231Z,1.10
2019-04-28T18:28:24.193Z,1.30
2019-04-28T18:31:01.827Z,1.20
2019-04-28T18:34:01.970Z,1.03
2019-04-28T18:36:38.735Z,1.20
2019-04-28T18:39:19.237Z,0.97
2019-04-28T18:42:06.133Z,1.00
2019-04-28T18:44:35.158Z,1.03
2019-04-28T18:47:04.189Z,1.70
2019-04-28T18:49:33.275Z,0.80
2019-04-28T18:52:02.454Z,1.53
2019-04-28T18:54:31.467Z,2.53
2019-04-28T18:57:00.486Z,6.80
2019-04-28T18:59:29.462Z,2.57
2019-04-28T19:02:08.764Z,15.03
2019-04-28T19:04:37.634Z,9.97
2019-04-28T19:07:08.981Z,15.77
2019-04-28T19:09:45.322Z,20.90
2019-04-28T19:12:21.191Z,29.43
2019-04-28T19:14:59.029Z,10.73
2019-04-28T19:17:39.918Z,7.13
2019-04-28T19:20:09.098Z,7.37
2019-04-28T19:22:44.655Z,4.27
2019-04-28T19:25:13.862Z,2.97
2019-04-28T19:27:42.870Z,3.20
2019-04-28T19:30:11.941Z,4.23
2019-04-28T19:32:41.754Z,1.53
2019-04-28T19:35:11.091Z,2.97
2019-04-28T19:37:40.153Z,2.10
2019-04-28T19:40:09.413Z,1.93
2019-04-28T19:42:38.346Z,1.37
2019-04-28T19:45:11.874Z,1.90
2019-04-28T19:47:40.120Z,1.60
2019-04-28T19:50:09.235Z,1.60
2019-04-28T19:52:40.914Z,1.70
2019-04-28T19:55:17.430Z,1.10
2019-04-28T19:57:55.263Z,1.33
2019-04-28T20:00:28.163Z,1.30
2019-04-28T20:02:57.153Z,0.93
2019-04-28T20:05:26.199Z,1.10
2019-04-28T20:07:55.285Z,1.20
2019-04-28T20:10:24.281Z,13.97
2019-04-28T20:12:53.465Z,5.30
2019-04-28T20:15:22.662Z,15.90
2019-04-28T20:17:51.927Z,29.80
2019-04-28T20:20:20.873Z,21.70
2019-04-28T20:22:50.099Z,25.90
2019-04-28T20:25:19.180Z,7.53
2019-04-28T20:27:48.255Z,16.57
2019-04-28T20:30:17.570Z,28.70
2019-04-28T20:32:46.868Z,25.03
2019-04-28T20:35:19.205Z,21.07
2019-04-28T20:37:54.012Z,50.30
2019-04-28T20:40:29.985Z,13.17
2019-04-28T20:43:09.691Z,1.57
2019-04-28T20:45:38.697Z,1.33
2019-04-28T20:48:08.375Z,7.47
2019-04-28T20:50:38.771Z,2.53
2019-04-28T20:53:07.758Z,3.27
2019-04-28T20:55:37.186Z,1.80
2019-04-28T20:58:11.511Z,1.20
2019-04-28T21:00:43.279Z,3.77
2019-04-28T21:03:16.785Z,4.67
2019-04-28T21:05:47.842Z,6.40
2019-04-28T21:08:19.269Z,1.77
2019-04-28T21:10:54.489Z,3.13
2019-04-28T21:13:26.563Z,2.93
2019-04-28T21:15:55.607Z,1.70
2019-04-28T21:18:24.651Z,2.07
2019-04-28T21:20:56.957Z,1.50
2019-04-28T21:23:26.399Z,1.63
2019-04-28T21:25:55.621Z,1.50
2019-04-28T21:28:24.554Z,1.20
2019-04-28T21:30:53.844Z,1.10
2019-04-28T21:33:22.842Z,2.90
2019-04-28T21:35:51.774Z,1.40
2019-04-28T21:38:20.733Z,1.30
2019-04-28T21:40:55.888Z,1.20
2019-04-28T21:43:31.531Z,1.67
2019-04-28T21:46:22.742Z,1.77
2019-04-28T21:49:18.567Z,1.60
2019-04-28T21:51:49.705Z,1.23
2019-04-28T21:54:19.573Z,1.37
2019-04-28T21:56:49.988Z,1.40
2019-04-28T21:59:22.208Z,1.70
2019-04-28T22:01:51.796Z,3.07
2019-04-28T22:04:25.081Z,2.37
2019-04-28T22:07:02.217Z,10.60
2019-04-28T22:09:33.761Z,1.30
2019-04-28T22:12:03.438Z,1.63
2019-04-28T22:14:34.176Z,1.20
2019-04-28T22:17:07.241Z,1.67
2019-04-28T22:19:42.233Z,1.17
2019-04-28T22:22:11.064Z,1.27
2019-04-28T22:24:50.043Z,1.57
2019-04-28T22:27:41.787Z,1.20
2019-04-28T22:30:09.941Z,1.53
2019-04-28T22:32:38.941Z,1.20
2019-04-28T22:35:08.657Z,1.30
2019-04-28T22:37:48.987Z,1.13
2019-04-28T22:40:17.973Z,1.20
2019-04-28T22:42:47.128Z,1.40
2019-04-28T22:45:16.628Z,1.50
2019-04-28T22:47:46.077Z,1.63
2019-04-28T22:50:37.220Z,1.40
2019-04-28T22:53:06.337Z,1.57
2019-04-28T22:55:53.287Z,1.70
2019-04-28T22:58:38.708Z,1.20
2019-04-28T23:01:29.546Z,1.47
2019-04-28T23:04:21.938Z,1.63
2019-04-28T23:06:53.187Z,1.60
2019-04-28T23:09:23.599Z,1.40
2019-04-28T23:12:00.093Z,1.47
2019-04-28T23:14:27.959Z,1.37
2019-04-28T23:16:57.024Z,1.23
2019-04-28T23:19:28.240Z,1.30
2019-04-28T23:22:22.615Z,1.20
2019-04-28T23:24:51.618Z,1.63
2019-04-28T23:27:20.536Z,1.30
2019-04-28T23:29:49.541Z,1.40
2019-04-28T23:32:18.648Z,1.20
2019-04-28T23:34:47.653Z,1.43
2019-04-28T23:37:16.739Z,1.33
2019-04-28T23:39:45.733Z,1.50
2019-04-28T23:42:20.809Z,1.27
2019-04-28T23:44:49.838Z,1.30
2019-04-28T23:47:18.794Z,1.40
2019-04-28T23:49:47.880Z,1.37
2019-04-28T23:52:48.446Z,1.20
2019-04-28T23:55:19.474Z,1.73
2019-04-28T23:57:48.486Z,2.00
